Terminal Aerodrome Forecast
Issued by NWS

Home | Current Version | Previous Version | Text Only | Print | Product List | Glossary On
Versions: 1 2 3 4 5 6 7 8 9 10 11 12 13
000
FTUS42 TJSJ 270500 RRA
TAFJSJ
TAF
TJSJ 270555Z 2706/2806 11005KT P6SM FEW025
     FM271330 08013G18KT P6SM VCSH FEW030 SCT050
     FM272200 09010KT P6SM FEW027=

USA.gov is the U.S. government's official web portal to all federal, state and local government web resources and services.